Andrews, SC

12:27 PM EDT on July 28, 2016 (GMT -0400)
Spring Gully | | Change Station
Active Advisory: Heat Advisory

Elev 20 ft 33.38 °N, 79.42 °W | Updated 2 minutes ago

Clear
Clear
94.9 °F
Feels Like 115 °F
N
0.0
Wind Variable Wind from West
Gusts 1.0 mph

Today
High -- | Low -- °F
--% Chance of Precip.
Yesterday
High -- | Low -- °F
Precip. -- in
Pressure 30.01 in
Visibility 10.0 miles
Clouds Clear
Heat Index 115 °F
Dew Point 80 °F
Humidity 62%
Rainfall 0.00 in
Snow Depth Not available.
6:28 AM 8:20 PM
Waning Crescent, 31% visible
METAR KGGE 281355Z AUTO 29007KT 10SM CLR 30/22 A3001 RMK AO2
Pressure 30.01 in
Visibility 10.0 miles
Clouds Clear
Heat Index 115 °F
Dew Point 80 °F
Humidity 62%
Rainfall 0.00 in
Snow Depth Not available.
6:28 AM 8:20 PM
Waning Crescent, 31% visible
METAR KGGE 281355Z AUTO 29007KT 10SM CLR 30/22 A3001 RMK AO2

10-Day Weather Forecast

Almanac

Astronomy

Jul. 28, 2016 Rise Set
Actual Time
Civil Twilight
Nautical Twilight
Astronomical Twilight
Moon
Length of Visible Light
Length of Day
Tomorrow will be .
, % of the Moon is Illuminated

Today's Extremes

State Highs State Lows

Community

WunderPhotos

Upload Photos

1,928,146 photos uploaded!

WunderBlog® & News

Nearby

Air Quality

  Air Quality AQ Index Pollutant
Not available.

Snow Depth

Station Depth Elevation

Earthquake Activity

City Distance Mag. Time & Date
Minimum magnitude displayed is 2.5.

Coastal Water Temperatures

Place Temperature

Stations

Nearby Weather Stations

Station Location Temp. Windchill Dew Point Humidity Wind Precip. Elev Updated Type
                   

Watches & Warnings

Heat Advisory
Issued: 10:43 AM EDT Jul. 28, 2016 – National Weather Service

... Heat advisory remains in effect until 8 PM EDT this evening...

* heat index values... up to 109 due to temperatures in the mid
90s... and dewpoints in the lower 70s.

* Timing... the highest sustained heat index values will occur in
the mid to late afternoon hours.

* Impacts... the combination of hot temperatures and high
relative humidity will result with the increasing frequency of
heat related illnesses across the advised area. If you suspect
someone having a heat stroke... call 911 immediately.

Precautionary/preparedness actions...

A heat advisory means that a period of hot temperatures is
expected. The combination of hot temperatures and high humidity
will create a situation in which heat illnesses are possible. To
reduce the risk of heat illness during outdoor work the
occupational safety and health administration recommends
scheduling frequent rest breaks in shaded or air conditioned
environments.



5